Terminal Aerodrome Forecast
Issued by NWS Atlanta, GA

Home | Current Version | Previous Version | Text Only | Print | Product List | Glossary On
Versions: 1 2 3 4 5 6 7 8 9 10 11 12 13 14 15 16 17
073
FTUS42 KFFC 170531
TAFCSG
TAF
KCSG 170531Z 1706/1806 15003KT P6SM FEW040 SCT060
     FM171500 19006KT P6SM BKN035
     FM172100 22009KT P6SM SCT035 BKN200=

USA.gov is the U.S. government's official web portal to all federal, state and local government web resources and services.